createdAt,value
2018-02-01T00:00:15.878Z,4.70
2018-02-01T00:02:44.085Z,4.70
2018-02-01T00:05:11.541Z,4.70
2018-02-01T00:07:38.987Z,4.80
2018-02-01T00:10:06.435Z,4.80
2018-02-01T00:12:34.661Z,4.70
2018-02-01T00:15:02.105Z,4.70
2018-02-01T00:17:29.581Z,4.70
2018-02-01T00:19:57.030Z,4.80
2018-02-01T00:22:24.492Z,4.70
2018-02-01T00:24:51.941Z,4.80
2018-02-01T00:27:20.154Z,4.70
2018-02-01T00:29:47.612Z,4.70
2018-02-01T00:32:15.084Z,4.80
2018-02-01T00:34:42.540Z,4.70
2018-02-01T00:37:09.992Z,4.60
2018-02-01T00:39:37.477Z,4.60
2018-02-01T00:42:04.935Z,4.60
2018-02-01T00:44:32.398Z,4.60
2018-02-01T00:46:59.839Z,4.60
2018-02-01T00:49:27.287Z,4.50
2018-02-01T00:51:54.730Z,4.50
2018-02-01T00:54:22.956Z,4.50
2018-02-01T00:56:50.405Z,4.40
2018-02-01T00:59:17.883Z,4.40
2018-02-01T01:01:45.459Z,4.40
2018-02-01T01:04:12.905Z,4.40
2018-02-01T01:06:40.345Z,4.40
2018-02-01T01:09:08.570Z,4.40
2018-02-01T01:11:36.038Z,4.30
2018-02-01T01:14:03.486Z,4.40
2018-02-01T01:16:30.930Z,4.40
2018-02-01T01:18:58.386Z,4.50
2018-02-01T01:21:25.848Z,4.50
2018-02-01T01:23:53.349Z,4.50
2018-02-01T01:26:20.802Z,4.50
2018-02-01T01:28:48.262Z,4.50
2018-02-01T01:31:15.703Z,4.50
2018-02-01T01:33:43.143Z,4.50
2018-02-01T01:36:11.393Z,4.50
2018-02-01T01:38:38.850Z,4.40
2018-02-01T01:41:06.313Z,4.40
2018-02-01T01:43:33.792Z,4.40
2018-02-01T01:46:10.070Z,4.40
2018-02-01T01:48:38.290Z,4.40
2018-02-01T01:51:05.767Z,4.40
2018-02-01T01:53:33.229Z,4.40
2018-02-01T01:56:00.661Z,4.40
2018-02-01T01:58:28.099Z,4.40
2018-02-01T02:00:55.543Z,4.40
2018-02-01T02:03:23.008Z,4.40
2018-02-01T02:05:50.447Z,4.40
2018-02-01T02:08:17.918Z,4.50
2018-02-01T02:10:45.372Z,4.40
2018-02-01T02:13:12.841Z,4.40
2018-02-01T02:15:40.286Z,4.50
2018-02-01T02:18:07.749Z,4.40
2018-02-01T02:20:35.184Z,4.50
2018-02-01T02:23:02.629Z,4.50
2018-02-01T02:25:30.848Z,4.40
2018-02-01T02:27:58.296Z,4.40
2018-02-01T02:30:25.759Z,4.40
2018-02-01T02:32:53.220Z,4.40
2018-02-01T02:35:20.661Z,4.40
2018-02-01T02:37:48.892Z,4.40
2018-02-01T02:40:16.337Z,4.40
2018-02-01T02:42:43.792Z,4.40
2018-02-01T02:45:11.250Z,4.30
2018-02-01T02:47:38.704Z,4.40
2018-02-01T02:50:06.913Z,4.40
2018-02-01T02:52:34.357Z,4.40
2018-02-01T02:55:01.820Z,4.40
2018-02-01T02:57:29.284Z,4.40
2018-02-01T02:59:56.745Z,4.40
2018-02-01T03:02:24.210Z,4.40
2018-02-01T03:04:51.667Z,4.40
2018-02-01T03:07:19.111Z,4.30
2018-02-01T03:09:47.322Z,4.30
2018-02-01T03:12:14.775Z,4.30
2018-02-01T03:14:42.236Z,4.30
2018-02-01T03:17:09.677Z,4.30
2018-02-01T03:19:37.876Z,4.30
2018-02-01T03:22:05.383Z,4.30
2018-02-01T03:24:32.813Z,4.30
2018-02-01T03:27:00.266Z,4.30
2018-02-01T03:29:27.708Z,4.30
2018-02-01T03:31:55.943Z,4.30
2018-02-01T03:34:23.386Z,4.20
2018-02-01T03:36:50.860Z,4.30
2018-02-01T03:39:18.301Z,4.30
2018-02-01T03:41:45.762Z,4.30
2018-02-01T03:44:13.217Z,4.40
2018-02-01T03:46:40.669Z,4.30
2018-02-01T03:49:08.120Z,4.30
2018-02-01T03:51:36.326Z,4.30
2018-02-01T03:54:03.793Z,4.30
2018-02-01T03:56:31.247Z,4.30
2018-02-01T03:58:58.693Z,4.30
2018-02-01T04:01:26.907Z,4.30
2018-02-01T04:03:54.355Z,4.30
2018-02-01T04:06:21.799Z,4.30
2018-02-01T04:08:49.246Z,4.30
2018-02-01T04:11:16.703Z,4.30
2018-02-01T04:13:44.141Z,4.30
2018-02-01T04:16:11.595Z,4.30
2018-02-01T04:18:39.050Z,4.30
2018-02-01T04:21:06.509Z,4.30
2018-02-01T04:23:33.966Z,4.40
2018-02-01T04:26:02.182Z,4.40
2018-02-01T04:28:29.633Z,4.30
2018-02-01T04:30:57.096Z,4.40
2018-02-01T04:33:24.565Z,4.30
2018-02-01T04:35:52.027Z,4.40
2018-02-01T04:38:19.483Z,4.40
2018-02-01T04:40:46.964Z,4.40
2018-02-01T04:43:14.422Z,4.30
2018-02-01T04:45:41.869Z,4.40
2018-02-01T04:48:09.324Z,4.40
2018-02-01T04:50:36.779Z,4.40
2018-02-01T04:53:04.241Z,4.40
2018-02-01T04:55:31.693Z,4.40
2018-02-01T04:57:59.190Z,4.40
2018-02-01T05:00:26.646Z,4.40
2018-02-01T05:02:54.090Z,4.40
2018-02-01T05:05:21.546Z,4.40
2018-02-01T05:07:49.018Z,4.40
2018-02-01T05:10:16.442Z,4.40
2018-02-01T05:12:44.664Z,4.30
2018-02-01T05:15:12.120Z,4.40
2018-02-01T05:17:39.571Z,4.40
2018-02-01T05:20:07.001Z,4.40
2018-02-01T05:22:35.220Z,4.40
2018-02-01T05:25:02.675Z,4.40
2018-02-01T05:27:30.130Z,4.50
2018-02-01T05:29:57.597Z,4.50
2018-02-01T05:32:25.047Z,4.40
2018-02-01T05:34:52.496Z,4.40
2018-02-01T05:37:19.931Z,4.40
2018-02-01T05:39:47.390Z,4.30
2018-02-01T05:42:14.829Z,4.30
2018-02-01T05:44:42.292Z,4.30
2018-02-01T05:47:09.762Z,4.30
2018-02-01T05:49:37.225Z,4.30
2018-02-01T05:52:04.692Z,4.30
2018-02-01T05:54:32.154Z,4.20
2018-02-01T05:56:59.601Z,4.10
2018-02-01T05:59:27.087Z,4.10
2018-02-01T06:01:54.538Z,4.00
2018-02-01T06:04:21.996Z,4.10
2018-02-01T06:06:49.457Z,4.10
2018-02-01T06:09:16.922Z,4.00
2018-02-01T06:11:44.381Z,3.90
2018-02-01T06:14:11.829Z,3.90
2018-02-01T06:16:39.294Z,3.70
2018-02-01T06:19:06.766Z,3.80
2018-02-01T06:21:34.983Z,3.80
2018-02-01T06:24:02.444Z,3.80
2018-02-01T06:26:29.888Z,3.80
2018-02-01T06:28:57.345Z,3.80
2018-02-01T06:31:24.779Z,3.80
2018-02-01T06:33:52.228Z,3.80
2018-02-01T06:36:19.658Z,3.80
2018-02-01T06:38:47.115Z,3.80
2018-02-01T06:41:14.552Z,3.80
2018-02-01T06:43:42.006Z,3.80
2018-02-01T06:46:09.436Z,3.80
2018-02-01T06:48:37.661Z,3.70
2018-02-01T06:51:05.110Z,3.70
2018-02-01T06:53:32.557Z,3.70
2018-02-01T06:56:00.004Z,3.70
2018-02-01T06:58:28.220Z,3.60
2018-02-01T07:00:57.463Z,3.60
2018-02-01T07:03:24.894Z,3.60
2018-02-01T07:05:52.388Z,3.60
2018-02-01T07:08:19.821Z,3.60
2018-02-01T07:10:47.272Z,3.70
2018-02-01T07:13:14.727Z,3.70
2018-02-01T07:15:42.199Z,3.70
2018-02-01T07:18:09.644Z,3.70
2018-02-01T07:20:37.112Z,3.60
2018-02-01T07:23:04.581Z,3.60
2018-02-01T07:25:32.039Z,3.60
2018-02-01T07:27:59.548Z,3.50
2018-02-01T07:30:26.989Z,3.50
2018-02-01T07:32:54.442Z,3.50
2018-02-01T07:35:21.889Z,3.50
2018-02-01T07:37:49.343Z,3.60
2018-02-01T07:40:16.778Z,3.60
2018-02-01T07:42:45.009Z,3.60
2018-02-01T07:45:12.459Z,3.50
2018-02-01T07:47:39.914Z,3.50
2018-02-01T07:50:07.369Z,3.60
2018-02-01T07:52:34.840Z,3.60
2018-02-01T07:55:02.278Z,3.60
2018-02-01T07:57:30.494Z,3.60
2018-02-01T07:59:58.719Z,3.60
2018-02-01T08:02:26.191Z,3.60
2018-02-01T08:04:56.370Z,3.60
2018-02-01T08:07:23.774Z,3.60
2018-02-01T08:09:52.002Z,3.60
2018-02-01T08:12:19.475Z,3.60
2018-02-01T08:14:46.931Z,3.60
2018-02-01T08:17:14.478Z,3.50
2018-02-01T08:19:42.689Z,3.30
2018-02-01T08:22:10.158Z,3.30
2018-02-01T08:24:37.558Z,3.30
2018-02-01T08:27:05.778Z,3.30
2018-02-01T08:29:33.238Z,3.30
2018-02-01T08:32:00.697Z,3.30
2018-02-01T08:34:28.148Z,3.30
2018-02-01T08:36:55.612Z,3.30
2018-02-01T08:39:23.058Z,3.40
2018-02-01T08:41:50.518Z,3.40
2018-02-01T08:44:18.734Z,3.40
2018-02-01T08:46:46.178Z,3.30
2018-02-01T08:49:13.626Z,3.40
2018-02-01T08:51:41.831Z,3.40
2018-02-01T08:54:13.706Z,3.30
2018-02-01T08:56:41.189Z,3.40
2018-02-01T08:59:08.618Z,3.40
2018-02-01T09:01:36.072Z,3.40
2018-02-01T09:04:03.541Z,3.40
2018-02-01T09:06:31.002Z,3.40
2018-02-01T09:08:58.437Z,3.40
2018-02-01T09:11:25.892Z,3.40
2018-02-01T09:13:54.215Z,3.30
2018-02-01T09:16:21.707Z,3.30
2018-02-01T09:18:49.168Z,3.30
2018-02-01T09:21:16.637Z,3.30
2018-02-01T09:23:44.082Z,3.30
2018-02-01T09:26:11.536Z,3.30
2018-02-01T09:28:38.987Z,3.20
2018-02-01T09:31:06.429Z,3.20
2018-02-01T09:33:33.890Z,3.30
2018-02-01T09:36:02.114Z,3.30
2018-02-01T09:38:29.572Z,3.30
2018-02-01T09:40:57.017Z,3.30
2018-02-01T09:43:24.478Z,3.30
2018-02-01T09:45:51.926Z,3.30
2018-02-01T09:48:19.387Z,3.30
2018-02-01T09:50:46.830Z,3.30
2018-02-01T09:53:15.056Z,3.30
2018-02-01T09:55:42.510Z,3.30
2018-02-01T09:58:09.957Z,3.30
2018-02-01T10:00:37.431Z,3.40
2018-02-01T10:03:04.869Z,3.40
2018-02-01T10:05:33.079Z,3.50
2018-02-01T10:08:00.540Z,3.50
2018-02-01T10:10:28.005Z,3.60
2018-02-01T10:12:55.458Z,3.70
2018-02-01T10:15:22.910Z,3.70
2018-02-01T10:17:50.384Z,3.70
2018-02-01T10:20:17.837Z,3.70
2018-02-01T10:22:45.284Z,3.70
2018-02-01T10:25:13.488Z,3.80
2018-02-01T10:27:40.942Z,3.80
2018-02-01T10:30:08.391Z,3.80
2018-02-01T10:32:36.604Z,3.90
2018-02-01T10:35:04.039Z,3.90
2018-02-01T10:37:32.277Z,4.00
2018-02-01T10:39:59.770Z,4.00
2018-02-01T10:42:27.986Z,4.10
2018-02-01T10:44:55.407Z,4.10
2018-02-01T10:47:22.861Z,4.20
2018-02-01T10:49:50.302Z,4.30
2018-02-01T10:52:17.767Z,4.30
2018-02-01T10:54:45.232Z,4.20
2018-02-01T10:57:12.691Z,4.20
2018-02-01T10:59:40.146Z,4.20
2018-02-01T11:02:07.569Z,4.10
2018-02-01T11:04:35.032Z,4.10
2018-02-01T11:07:02.511Z,4.10
2018-02-01T11:09:29.962Z,4.10
2018-02-01T11:11:57.409Z,4.10
2018-02-01T11:14:25.615Z,4.20
2018-02-01T11:16:53.071Z,4.20
2018-02-01T11:19:20.498Z,4.30
2018-02-01T11:21:48.722Z,4.30
2018-02-01T11:24:16.179Z,4.30
2018-02-01T11:26:43.628Z,4.10
2018-02-01T11:29:11.102Z,3.90
2018-02-01T11:31:38.537Z,3.90
2018-02-01T11:34:06.752Z,4.10
2018-02-01T11:36:34.196Z,4.10
2018-02-01T11:39:01.643Z,4.30
2018-02-01T11:41:29.868Z,4.50
2018-02-01T11:43:57.324Z,4.50
2018-02-01T11:46:24.786Z,4.60
2018-02-01T11:48:52.243Z,4.50
2018-02-01T11:51:19.705Z,4.60
2018-02-01T11:53:47.162Z,4.70
2018-02-01T11:56:14.590Z,4.80
2018-02-01T11:58:42.824Z,4.80
2018-02-01T12:01:10.251Z,4.80
2018-02-01T12:03:38.482Z,4.80
2018-02-01T12:06:05.924Z,4.80
2018-02-01T12:08:33.379Z,4.90
2018-02-01T12:11:00.837Z,5.00
2018-02-01T12:13:28.259Z,5.00
2018-02-01T12:15:55.713Z,5.10
2018-02-01T12:18:23.154Z,5.20
2018-02-01T12:20:50.612Z,5.30
2018-02-01T12:23:18.065Z,5.30
2018-02-01T12:25:45.527Z,5.10
2018-02-01T12:28:12.987Z,5.00
2018-02-01T12:30:40.440Z,4.90
2018-02-01T12:33:07.878Z,4.90
2018-02-01T12:35:36.089Z,5.00
2018-02-01T12:38:03.548Z,5.00
2018-02-01T12:40:30.987Z,5.10
2018-02-01T12:42:58.445Z,5.10
2018-02-01T12:45:26.654Z,5.10
2018-02-01T12:47:54.117Z,5.00
2018-02-01T12:50:21.553Z,5.00
2018-02-01T12:52:49.005Z,5.00
2018-02-01T12:55:17.211Z,5.10
2018-02-01T12:57:44.662Z,5.00
2018-02-01T13:00:12.139Z,5.10
2018-02-01T13:02:39.583Z,5.10
2018-02-01T13:05:07.827Z,5.10
2018-02-01T13:07:35.298Z,5.10
2018-02-01T13:10:02.783Z,5.10
2018-02-01T13:12:31.031Z,5.10
2018-02-01T13:14:58.491Z,5.10
2018-02-01T13:17:25.953Z,5.10
2018-02-01T13:19:53.411Z,5.10
2018-02-01T13:22:20.846Z,5.10
2018-02-01T13:24:48.311Z,5.10
2018-02-01T13:27:15.768Z,5.10
2018-02-01T13:29:43.208Z,5.10
2018-02-01T13:32:11.439Z,5.10
2018-02-01T13:34:38.882Z,5.10
2018-02-01T13:37:06.336Z,5.10
2018-02-01T13:39:33.820Z,5.10
2018-02-01T13:42:01.280Z,5.00
2018-02-01T13:44:28.728Z,5.10
2018-02-01T13:46:56.187Z,5.10
2018-02-01T13:49:23.641Z,5.20
2018-02-01T13:51:51.094Z,5.20
2018-02-01T13:54:18.529Z,5.20
2018-02-01T13:56:46.024Z,5.20
2018-02-01T13:59:13.453Z,5.30
2018-02-01T14:01:40.907Z,5.10
2018-02-01T14:04:08.360Z,5.10
2018-02-01T14:06:35.816Z,5.10
2018-02-01T14:09:03.265Z,5.10
2018-02-01T14:11:30.722Z,5.10
2018-02-01T14:13:58.185Z,5.10
2018-02-01T14:16:25.660Z,5.10
2018-02-01T14:18:53.129Z,5.00
2018-02-01T14:21:20.586Z,5.00
2018-02-01T14:23:48.025Z,4.90
2018-02-01T14:26:15.475Z,4.80
2018-02-01T14:28:42.923Z,4.70
2018-02-01T14:31:11.144Z,4.80
2018-02-01T14:33:38.597Z,4.70
2018-02-01T14:36:06.046Z,4.80
2018-02-01T14:38:33.517Z,4.80
2018-02-01T14:41:00.958Z,4.90
2018-02-01T14:43:28.411Z,5.00
2018-02-01T14:45:56.617Z,4.80
2018-02-01T14:48:24.057Z,4.80
2018-02-01T14:50:52.276Z,4.50
2018-02-01T14:53:19.724Z,4.50
2018-02-01T14:55:47.189Z,4.40
2018-02-01T14:58:14.623Z,4.50
2018-02-01T15:00:42.854Z,4.70
2018-02-01T15:03:10.313Z,4.70
2018-02-01T15:05:37.776Z,4.70
2018-02-01T15:08:05.233Z,4.80
2018-02-01T15:10:32.691Z,4.80
2018-02-01T15:13:00.138Z,4.90
2018-02-01T15:15:27.588Z,5.00
2018-02-01T15:17:55.071Z,5.10
2018-02-01T15:20:22.518Z,5.00
2018-02-01T15:22:50.542Z,5.10
2018-02-01T15:25:17.993Z,5.10
2018-02-01T15:27:45.445Z,5.10
2018-02-01T15:30:12.912Z,5.10
2018-02-01T15:32:40.370Z,5.10
2018-02-01T15:35:07.818Z,5.10
2018-02-01T15:37:35.263Z,5.10
2018-02-01T15:40:02.714Z,5.10
2018-02-01T15:42:30.176Z,5.10
2018-02-01T15:44:58.383Z,4.90
2018-02-01T15:47:25.821Z,4.90
2018-02-01T15:49:54.041Z,5.00
2018-02-01T15:52:21.498Z,5.00
2018-02-01T15:54:48.993Z,4.90
2018-02-01T15:57:16.450Z,4.90
2018-02-01T15:59:43.916Z,4.90
2018-02-01T16:02:11.367Z,4.80
2018-02-01T16:04:43.996Z,4.80
2018-02-01T16:07:12.214Z,4.70
2018-02-01T16:09:39.699Z,4.70
2018-02-01T16:12:07.141Z,4.70
2018-02-01T16:14:34.587Z,4.70
2018-02-01T16:17:02.049Z,4.70
2018-02-01T16:19:29.543Z,4.80
2018-02-01T16:21:56.985Z,4.80
2018-02-01T16:24:24.450Z,4.80
2018-02-01T16:26:51.903Z,4.80
2018-02-01T16:29:19.344Z,4.80
2018-02-01T16:31:47.557Z,4.80
2018-02-01T16:34:15.058Z,4.80
2018-02-01T16:36:42.499Z,4.80
2018-02-01T16:39:09.995Z,4.80
2018-02-01T16:41:37.436Z,4.80
2018-02-01T16:44:04.911Z,4.80
2018-02-01T16:46:32.358Z,4.80
2018-02-01T16:48:59.806Z,4.80
2018-02-01T16:51:27.250Z,4.90
2018-02-01T16:53:54.727Z,4.80
2018-02-01T16:56:22.178Z,4.80
2018-02-01T16:58:49.624Z,4.60
2018-02-01T17:01:17.102Z,4.40
2018-02-01T17:03:44.584Z,4.30
2018-02-01T17:06:12.036Z,4.20
2018-02-01T17:08:39.493Z,4.10
2018-02-01T17:11:06.950Z,4.00
2018-02-01T17:13:34.418Z,4.00
2018-02-01T17:16:01.879Z,4.00
2018-02-01T17:18:29.315Z,4.00
2018-02-01T17:20:57.525Z,4.00
2018-02-01T17:23:25.000Z,4.00
2018-02-01T17:25:52.437Z,4.00
2018-02-01T17:28:19.903Z,3.90
2018-02-01T17:30:47.351Z,3.90
2018-02-01T17:33:14.826Z,4.00
2018-02-01T17:35:42.272Z,3.90
2018-02-01T17:38:10.512Z,3.90
2018-02-01T17:40:37.955Z,3.90
2018-02-01T17:43:05.409Z,3.90
2018-02-01T17:45:32.870Z,3.90
2018-02-01T17:48:00.324Z,3.90
2018-02-01T17:50:27.789Z,4.00
2018-02-01T17:52:55.240Z,4.00
2018-02-01T17:55:22.685Z,4.00
2018-02-01T17:57:51.787Z,4.10
2018-02-01T18:00:20.034Z,4.10
2018-02-01T18:02:47.493Z,4.10
2018-02-01T18:05:14.965Z,4.10
2018-02-01T18:07:42.402Z,4.10
2018-02-01T18:10:09.869Z,4.20
2018-02-01T18:12:37.347Z,4.20
2018-02-01T18:15:04.822Z,4.20
2018-02-01T18:17:32.289Z,4.20
2018-02-01T18:19:59.766Z,4.20
2018-02-01T18:22:27.971Z,4.20
2018-02-01T18:24:55.398Z,4.20
2018-02-01T18:27:23.631Z,4.10
2018-02-01T18:29:51.077Z,4.10
2018-02-01T18:32:18.504Z,4.10
2018-02-01T18:34:46.721Z,4.10
2018-02-01T18:37:14.178Z,4.10
2018-02-01T18:39:41.625Z,4.10
2018-02-01T18:42:09.842Z,4.10
2018-02-01T18:44:37.272Z,4.10
2018-02-01T18:47:04.727Z,4.10
2018-02-01T18:52:07.685Z,4.20
2018-02-01T18:54:35.142Z,4.20
2018-02-01T18:57:02.585Z,4.20
2018-02-01T18:59:30.032Z,4.20
2018-02-01T19:01:57.491Z,4.20
2018-02-01T19:04:25.719Z,4.20
2018-02-01T19:06:53.149Z,4.20
2018-02-01T19:09:20.648Z,4.20
2018-02-01T19:11:48.076Z,4.20
2018-02-01T19:14:15.560Z,4.20
2018-02-01T19:16:42.998Z,4.20
2018-02-01T19:19:10.433Z,4.20
2018-02-01T19:21:38.650Z,4.20
2018-02-01T19:24:06.103Z,4.20
2018-02-01T19:26:33.589Z,4.20
2018-02-01T19:29:01.016Z,4.30
2018-02-01T19:31:28.505Z,4.20
2018-02-01T19:33:55.954Z,4.20
2018-02-01T19:36:23.457Z,4.20
2018-02-01T19:38:50.907Z,4.10
2018-02-01T19:41:18.360Z,4.10
2018-02-01T19:43:45.818Z,4.10
2018-02-01T19:46:13.284Z,4.10
2018-02-01T19:48:40.730Z,4.10
2018-02-01T19:51:08.191Z,4.10
2018-02-01T19:53:35.899Z,4.10
2018-02-01T19:56:03.343Z,4.20
2018-02-01T19:58:30.793Z,4.20
2018-02-01T20:00:58.250Z,4.20
2018-02-01T20:03:25.711Z,4.20
2018-02-01T20:05:53.167Z,4.20
2018-02-01T20:08:20.610Z,4.30
2018-02-01T20:10:48.850Z,4.30
2018-02-01T20:13:16.303Z,4.20
2018-02-01T20:15:43.857Z,4.20
2018-02-01T20:18:11.314Z,4.20
2018-02-01T20:20:38.743Z,4.20
2018-02-01T20:23:06.971Z,4.20
2018-02-01T20:25:34.424Z,4.20
2018-02-01T20:28:01.886Z,4.20
2018-02-01T20:30:29.363Z,4.20
2018-02-01T20:32:56.818Z,4.20
2018-02-01T20:35:24.249Z,4.20
2018-02-01T20:37:51.698Z,4.30
2018-02-01T20:40:19.909Z,4.30
2018-02-01T20:42:47.371Z,4.30
2018-02-01T20:45:15.486Z,4.20
2018-02-01T20:47:42.995Z,4.20
2018-02-01T20:50:11.207Z,4.20
2018-02-01T20:52:38.657Z,4.20
2018-02-01T20:55:06.122Z,4.20
2018-02-01T20:57:33.582Z,4.20
2018-02-01T21:00:01.038Z,4.20
2018-02-01T21:02:28.509Z,4.20
2018-02-01T21:04:55.963Z,4.10
2018-02-01T21:07:23.398Z,4.20
2018-02-01T21:09:51.625Z,4.20
2018-02-01T21:12:19.818Z,4.10
2018-02-01T21:14:47.323Z,4.20
2018-02-01T21:17:14.773Z,4.20
2018-02-01T21:19:42.254Z,4.20
2018-02-01T21:22:10.486Z,4.20
2018-02-01T21:24:37.926Z,4.20
2018-02-01T21:27:05.374Z,4.20
2018-02-01T21:29:32.827Z,4.20
2018-02-01T21:32:01.034Z,4.20
2018-02-01T21:34:28.632Z,4.20
2018-02-01T21:36:56.066Z,4.20
2018-02-01T21:39:23.514Z,4.20
2018-02-01T21:41:51.662Z,4.20
2018-02-01T21:44:19.895Z,4.30
2018-02-01T21:46:47.333Z,4.20
2018-02-01T21:49:14.800Z,4.20
2018-02-01T21:51:42.278Z,4.30
2018-02-01T21:54:09.729Z,4.30
2018-02-01T21:56:37.180Z,4.30
2018-02-01T21:59:04.611Z,4.30
2018-02-01T22:01:32.826Z,4.20
2018-02-01T22:04:00.288Z,4.20
2018-02-01T22:06:27.752Z,4.20
2018-02-01T22:08:55.186Z,4.20
2018-02-01T22:11:23.791Z,4.10
2018-02-01T22:13:51.996Z,4.00
2018-02-01T22:16:19.450Z,4.00
2018-02-01T22:18:46.907Z,4.00
2018-02-01T22:21:14.387Z,4.00
2018-02-01T22:23:41.842Z,4.00
2018-02-01T22:26:09.304Z,4.00
2018-02-01T22:28:36.785Z,4.00
2018-02-01T22:31:04.326Z,4.00
2018-02-01T22:33:31.790Z,4.00
2018-02-01T22:35:59.250Z,3.90
2018-02-01T22:38:26.713Z,3.90
2018-02-01T22:40:54.178Z,4.00
2018-02-01T22:43:21.630Z,3.90
2018-02-01T22:45:49.061Z,4.00
2018-02-01T22:48:17.310Z,3.90
2018-02-01T22:50:44.785Z,3.90
2018-02-01T22:53:12.253Z,3.90
2018-02-01T22:55:39.697Z,3.90
2018-02-01T22:58:07.154Z,3.90
2018-02-01T23:00:34.613Z,3.90
2018-02-01T23:03:02.156Z,3.90
2018-02-01T23:05:29.662Z,3.90
2018-02-01T23:07:57.109Z,4.00
2018-02-01T23:10:24.578Z,4.00
2018-02-01T23:12:52.026Z,4.00
2018-02-01T23:15:19.466Z,4.00
2018-02-01T23:17:46.918Z,4.00
2018-02-01T23:20:14.375Z,4.00
2018-02-01T23:22:42.633Z,4.00
2018-02-01T23:25:10.074Z,4.00
2018-02-01T23:27:37.542Z,4.10
2018-02-01T23:30:05.262Z,4.10
2018-02-01T23:32:32.717Z,4.30
2018-02-01T23:35:00.183Z,4.40
2018-02-01T23:37:27.630Z,4.50
2018-02-01T23:39:55.851Z,4.70
2018-02-01T23:42:23.306Z,4.70
2018-02-01T23:44:50.758Z,4.80
2018-02-01T23:47:18.273Z,4.70
2018-02-01T23:49:45.727Z,4.70
2018-02-01T23:52:13.173Z,4.70
2018-02-01T23:54:40.629Z,4.70
2018-02-01T23:57:08.063Z,4.80
2018-02-01T23:59:35.515Z,4.80
